createdAt,value
2023-08-17T00:00:54.441Z,0.00
2023-08-17T00:01:54.466Z,0.00
2023-08-17T00:02:54.434Z,0.00
2023-08-17T00:03:54.417Z,0.00
2023-08-17T00:04:54.358Z,0.00
2023-08-17T00:05:54.337Z,0.00
2023-08-17T00:06:54.315Z,0.00
2023-08-17T00:07:54.290Z,0.00
2023-08-17T00:08:54.289Z,0.00
2023-08-17T00:09:54.245Z,0.00
2023-08-17T00:10:54.236Z,0.00
2023-08-17T00:11:54.230Z,0.00
2023-08-17T00:12:54.199Z,0.00
2023-08-17T00:13:54.171Z,0.00
2023-08-17T00:14:54.150Z,0.00
2023-08-17T00:15:54.160Z,0.00
2023-08-17T00:16:54.111Z,0.00
2023-08-17T00:17:54.134Z,0.00
2023-08-17T00:18:54.072Z,0.00
2023-08-17T00:19:54.054Z,0.00
2023-08-17T00:20:54.038Z,0.00
2023-08-17T00:21:54.007Z,0.00
2023-08-17T00:22:53.984Z,0.00
2023-08-17T00:23:53.979Z,0.00
2023-08-17T00:24:53.949Z,0.00
2023-08-17T00:25:53.933Z,0.00
2023-08-17T00:26:53.913Z,0.00
2023-08-17T00:27:53.913Z,0.00
2023-08-17T00:28:53.862Z,0.00
2023-08-17T00:29:53.845Z,0.00
2023-08-17T00:30:53.822Z,0.00
2023-08-17T00:31:53.854Z,0.00
2023-08-17T00:32:53.813Z,0.00
2023-08-17T00:33:53.762Z,0.00
2023-08-17T00:34:53.746Z,0.00
2023-08-17T00:35:53.729Z,0.00
2023-08-17T00:36:53.701Z,0.00
2023-08-17T00:37:53.688Z,0.00
2023-08-17T00:38:53.659Z,0.00
2023-08-17T00:39:53.649Z,0.00
2023-08-17T00:40:53.622Z,0.00
2023-08-17T00:41:53.615Z,0.00
2023-08-17T00:42:53.578Z,0.00
2023-08-17T00:43:53.585Z,0.00
2023-08-17T00:44:53.537Z,0.00
2023-08-17T00:45:53.548Z,0.00
2023-08-17T00:46:53.488Z,0.00
2023-08-17T00:47:53.517Z,0.00
2023-08-17T00:48:53.456Z,0.00
2023-08-17T00:49:53.435Z,0.00
2023-08-17T00:50:53.412Z,0.00
2023-08-17T00:51:53.409Z,0.00
2023-08-17T00:52:53.371Z,0.00
2023-08-17T00:53:53.357Z,0.00
2023-08-17T00:54:53.340Z,0.00
2023-08-17T00:55:53.340Z,0.00
2023-08-17T00:56:53.291Z,0.00
2023-08-17T00:57:53.272Z,0.00
2023-08-17T00:58:53.262Z,0.00
2023-08-17T01:00:04.880Z,0.00
2023-08-17T01:00:53.210Z,0.00
2023-08-17T01:01:53.199Z,0.00
2023-08-17T01:02:53.190Z,0.00
2023-08-17T01:03:53.158Z,0.00
2023-08-17T01:04:53.170Z,0.00
2023-08-17T01:05:53.109Z,0.00
2023-08-17T01:06:53.088Z,0.00
2023-08-17T01:07:53.073Z,0.00
2023-08-17T01:08:53.042Z,0.00
2023-08-17T01:09:53.032Z,0.00
2023-08-17T01:10:53.014Z,0.00
2023-08-17T01:11:52.992Z,0.00
2023-08-17T01:12:52.968Z,0.00
2023-08-17T01:13:52.957Z,0.00
2023-08-17T01:14:52.935Z,0.00
2023-08-17T01:15:52.988Z,0.00
2023-08-17T01:16:52.896Z,0.00
2023-08-17T01:17:52.923Z,0.00
2023-08-17T01:18:52.910Z,0.00
2023-08-17T01:19:52.826Z,0.00
2023-08-17T01:20:52.811Z,0.00
2023-08-17T01:21:52.793Z,0.00
2023-08-17T01:22:52.767Z,0.00
2023-08-17T01:23:52.747Z,0.00
2023-08-17T01:24:52.744Z,0.00
2023-08-17T01:25:52.705Z,0.00
2023-08-17T01:26:52.688Z,0.00
2023-08-17T01:27:52.686Z,0.00
2023-08-17T01:28:52.641Z,0.00
2023-08-17T01:29:52.620Z,0.00
2023-08-17T01:30:52.610Z,0.00
2023-08-17T01:31:52.614Z,0.00
2023-08-17T01:32:52.586Z,0.00
2023-08-17T01:33:52.541Z,0.00
2023-08-17T01:34:52.520Z,0.00
2023-08-17T01:35:52.503Z,0.00
2023-08-17T01:36:52.485Z,0.00
2023-08-17T01:37:52.462Z,0.00
2023-08-17T01:38:52.442Z,0.00
2023-08-17T01:39:52.434Z,0.00
2023-08-17T01:40:52.417Z,0.00
2023-08-17T01:41:52.383Z,0.00
2023-08-17T01:42:52.357Z,0.00
2023-08-17T01:43:52.367Z,0.00
2023-08-17T01:44:52.326Z,0.00
2023-08-17T01:45:52.300Z,0.00
2023-08-17T01:46:52.338Z,0.00
2023-08-17T01:47:52.354Z,0.00
2023-08-17T01:48:52.245Z,0.00
2023-08-17T01:49:52.220Z,0.00
2023-08-17T01:50:52.200Z,0.00
2023-08-17T01:51:52.184Z,0.00
2023-08-17T01:52:52.254Z,0.00
2023-08-17T01:53:52.151Z,0.00
2023-08-17T01:54:52.120Z,0.00
2023-08-17T01:55:54.244Z,0.00
2023-08-17T01:56:52.073Z,0.00
2023-08-17T01:57:52.060Z,0.00
2023-08-17T01:58:52.033Z,0.00
2023-08-17T01:59:52.015Z,0.00
2023-08-17T02:00:52.022Z,0.00
2023-08-17T02:01:52.001Z,0.00
2023-08-17T02:02:51.995Z,0.00
2023-08-17T02:03:51.956Z,0.00
2023-08-17T02:04:51.914Z,0.00
2023-08-17T02:05:51.892Z,0.00
2023-08-17T02:06:51.867Z,0.00
2023-08-17T02:07:51.858Z,0.00
2023-08-17T02:08:51.824Z,0.00
2023-08-17T02:09:51.812Z,0.00
2023-08-17T02:10:51.808Z,0.00
2023-08-17T02:11:51.776Z,0.00
2023-08-17T02:12:56.658Z,0.00
2023-08-17T02:13:51.729Z,0.00
2023-08-17T02:14:51.726Z,0.00
2023-08-17T02:15:51.696Z,0.00
2023-08-17T02:16:51.754Z,0.00
2023-08-17T02:17:51.689Z,0.00
2023-08-17T02:18:51.635Z,0.00
2023-08-17T02:19:51.636Z,0.00
2023-08-17T02:20:51.592Z,0.00
2023-08-17T02:21:51.574Z,0.00
2023-08-17T02:22:51.548Z,0.00
2023-08-17T02:23:51.527Z,0.00
2023-08-17T02:24:51.504Z,0.00
2023-08-17T02:25:51.494Z,0.00
2023-08-17T02:26:51.460Z,0.00
2023-08-17T02:27:51.451Z,0.00
2023-08-17T02:28:51.420Z,0.00
2023-08-17T02:29:51.411Z,0.00
2023-08-17T02:30:51.398Z,0.00
2023-08-17T02:31:51.362Z,0.00
2023-08-17T02:32:51.364Z,0.00
2023-08-17T02:33:51.320Z,0.00
2023-08-17T02:34:51.299Z,0.00
2023-08-17T02:35:51.329Z,0.00
2023-08-17T02:36:51.272Z,0.00
2023-08-17T02:37:51.241Z,0.00
2023-08-17T02:38:51.212Z,0.00
2023-08-17T02:39:51.204Z,0.00
2023-08-17T02:40:51.207Z,0.00
2023-08-17T02:41:51.167Z,0.00
2023-08-17T02:42:51.137Z,0.00
2023-08-17T02:43:51.118Z,0.00
2023-08-17T02:44:51.097Z,0.00
2023-08-17T02:45:51.088Z,0.00
2023-08-17T02:46:51.049Z,0.00
2023-08-17T02:47:51.115Z,0.00
2023-08-17T02:48:51.013Z,0.00
2023-08-17T02:49:50.989Z,0.00
2023-08-17T02:50:50.962Z,0.00
2023-08-17T02:51:50.965Z,0.00
2023-08-17T02:52:50.925Z,0.00
2023-08-17T02:53:50.904Z,0.00
2023-08-17T02:54:50.883Z,0.00
2023-08-17T02:55:50.870Z,0.00
2023-08-17T02:56:50.845Z,0.00
2023-08-17T02:57:50.836Z,0.00
2023-08-17T02:58:50.813Z,0.00
2023-08-17T02:59:50.783Z,0.00
2023-08-17T03:00:50.770Z,0.00
2023-08-17T03:01:50.812Z,0.00
2023-08-17T03:02:50.850Z,0.00
2023-08-17T03:03:50.708Z,0.00
2023-08-17T03:04:50.680Z,0.00
2023-08-17T03:05:50.659Z,0.00
2023-08-17T03:06:50.642Z,0.00
2023-08-17T03:07:50.641Z,0.00
2023-08-17T03:08:50.596Z,0.00
2023-08-17T03:09:50.573Z,0.00
2023-08-17T03:10:50.556Z,0.00
2023-08-17T03:11:50.539Z,0.00
2023-08-17T03:12:50.512Z,0.00
2023-08-17T03:13:50.494Z,0.00
2023-08-17T03:14:50.472Z,0.00
2023-08-17T03:15:50.455Z,0.00
2023-08-17T03:16:50.436Z,0.00
2023-08-17T03:17:50.425Z,0.00
2023-08-17T03:18:50.392Z,0.00
2023-08-17T03:19:50.380Z,0.00
2023-08-17T03:20:50.357Z,0.00
2023-08-17T03:21:50.333Z,0.00
2023-08-17T03:22:50.309Z,0.00
2023-08-17T03:23:50.311Z,0.00
2023-08-17T03:24:50.265Z,0.00
2023-08-17T03:25:50.253Z,0.00
2023-08-17T03:26:50.227Z,0.00
2023-08-17T03:27:50.229Z,0.00
2023-08-17T03:28:50.189Z,0.00
2023-08-17T03:29:50.179Z,0.00
2023-08-17T03:30:50.165Z,0.00
2023-08-17T03:31:50.124Z,0.00
2023-08-17T03:32:50.129Z,0.00
2023-08-17T03:33:50.089Z,0.00
2023-08-17T03:34:50.059Z,0.00
2023-08-17T03:35:50.043Z,0.00
2023-08-17T03:36:50.018Z,0.00
2023-08-17T03:37:50.014Z,0.00
2023-08-17T03:38:49.984Z,0.00
2023-08-17T03:39:49.985Z,0.00
2023-08-17T03:40:49.941Z,0.00
2023-08-17T03:41:49.924Z,0.00
2023-08-17T03:42:49.912Z,0.00
2023-08-17T03:43:49.881Z,0.00
2023-08-17T03:44:49.852Z,0.00
2023-08-17T03:45:49.846Z,0.00
2023-08-17T03:46:49.809Z,0.00
2023-08-17T03:47:49.821Z,0.00
2023-08-17T03:48:49.768Z,0.00
2023-08-17T03:49:49.753Z,0.00
2023-08-17T03:50:49.739Z,0.00
2023-08-17T03:51:49.708Z,0.00
2023-08-17T03:52:49.688Z,0.00
2023-08-17T03:53:49.671Z,0.00
2023-08-17T03:54:49.642Z,0.00
2023-08-17T03:55:49.641Z,0.00
2023-08-17T03:56:49.596Z,0.00
2023-08-17T03:57:49.580Z,0.00
2023-08-17T03:58:49.564Z,0.00
2023-08-17T03:59:49.546Z,0.00
2023-08-17T04:00:49.533Z,0.00
2023-08-17T04:01:49.525Z,0.00
2023-08-17T04:02:49.531Z,0.00
2023-08-17T04:03:49.469Z,0.00
2023-08-17T04:04:49.464Z,0.00
2023-08-17T04:05:49.420Z,0.00
2023-08-17T04:06:49.396Z,0.00
2023-08-17T04:07:49.381Z,4.00
2023-08-17T04:08:49.354Z,4.00
2023-08-17T04:09:49.343Z,0.00
2023-08-17T04:10:49.334Z,0.00
2023-08-17T04:11:49.320Z,0.00
2023-08-17T04:12:49.267Z,4.00
2023-08-17T04:13:49.256Z,4.00
2023-08-17T04:14:49.233Z,4.00
2023-08-17T04:15:49.233Z,0.00
2023-08-17T04:16:49.220Z,4.00
2023-08-17T04:17:49.188Z,4.00
2023-08-17T04:18:49.150Z,4.00
2023-08-17T04:19:49.128Z,4.00
2023-08-17T04:20:49.117Z,4.00
2023-08-17T04:21:49.085Z,4.00
2023-08-17T04:22:49.062Z,4.00
2023-08-17T04:23:49.045Z,8.00
2023-08-17T04:24:49.023Z,4.00
2023-08-17T04:25:49.004Z,8.00
2023-08-17T04:26:48.987Z,8.00
2023-08-17T04:27:48.978Z,12.00
2023-08-17T04:28:48.941Z,8.00
2023-08-17T04:29:48.916Z,8.00
2023-08-17T04:30:48.903Z,12.00
2023-08-17T04:31:48.885Z,12.00
2023-08-17T04:32:48.895Z,12.00
2023-08-17T04:33:48.828Z,12.00
2023-08-17T04:34:48.811Z,16.00
2023-08-17T04:35:48.785Z,16.00
2023-08-17T04:36:48.775Z,16.00
2023-08-17T04:37:48.748Z,16.00
2023-08-17T04:38:48.728Z,16.00
2023-08-17T04:39:48.702Z,16.00
2023-08-17T04:40:48.682Z,20.00
2023-08-17T04:41:48.660Z,20.00
2023-08-17T04:42:48.638Z,16.00
2023-08-17T04:43:48.646Z,20.00
2023-08-17T04:44:48.604Z,20.00
2023-08-17T04:45:48.592Z,20.00
2023-08-17T04:46:48.569Z,20.00
2023-08-17T04:47:48.624Z,24.00
2023-08-17T04:48:48.518Z,24.00
2023-08-17T04:49:48.499Z,28.00
2023-08-17T04:50:48.470Z,28.00
2023-08-17T04:51:48.447Z,28.00
2023-08-17T04:52:48.437Z,32.00
2023-08-17T04:53:48.412Z,32.00
2023-08-17T04:54:48.395Z,32.00
2023-08-17T04:55:48.390Z,32.00
2023-08-17T04:56:48.349Z,36.00
2023-08-17T04:57:48.335Z,36.00
2023-08-17T04:58:48.316Z,36.00
2023-08-17T04:59:48.319Z,36.00
2023-08-17T05:00:48.261Z,36.00
2023-08-17T05:01:48.239Z,40.00
2023-08-17T05:02:48.362Z,40.00
2023-08-17T05:03:48.307Z,44.00
2023-08-17T05:04:48.189Z,40.00
2023-08-17T05:05:48.154Z,44.00
2023-08-17T05:06:48.134Z,44.00
2023-08-17T05:07:48.106Z,48.00
2023-08-17T05:08:48.102Z,44.00
2023-08-17T05:09:48.159Z,48.00
2023-08-17T05:10:48.079Z,48.00
2023-08-17T05:11:48.029Z,48.00
2023-08-17T05:12:48.050Z,48.00
2023-08-17T05:13:47.988Z,52.00
2023-08-17T05:14:47.983Z,56.00
2023-08-17T05:15:48.009Z,56.00
2023-08-17T05:16:47.935Z,64.00
2023-08-17T05:17:47.930Z,64.00
2023-08-17T05:18:47.898Z,68.00
2023-08-17T05:19:47.866Z,72.00
2023-08-17T05:20:47.847Z,76.00
2023-08-17T05:21:47.848Z,76.00
2023-08-17T05:22:47.804Z,76.00
2023-08-17T05:23:47.780Z,80.00
2023-08-17T05:24:47.766Z,80.00
2023-08-17T05:25:47.740Z,84.00
2023-08-17T05:26:47.720Z,84.00
2023-08-17T05:27:47.715Z,88.00
2023-08-17T05:28:47.682Z,88.00
2023-08-17T05:29:47.661Z,96.00
2023-08-17T05:30:47.641Z,100.00
2023-08-17T05:31:47.633Z,108.00
2023-08-17T05:32:47.612Z,116.00
2023-08-17T05:33:47.573Z,120.00
2023-08-17T05:34:47.546Z,120.00
2023-08-17T05:35:47.525Z,124.00
2023-08-17T05:36:47.526Z,132.00
2023-08-17T05:37:47.486Z,136.00
2023-08-17T05:38:47.471Z,144.00
2023-08-17T05:39:47.436Z,168.00
2023-08-17T05:40:47.422Z,188.00
2023-08-17T05:41:47.398Z,188.00
2023-08-17T05:42:47.378Z,192.00
2023-08-17T05:43:47.371Z,212.00
2023-08-17T05:44:47.343Z,220.00
2023-08-17T05:45:47.320Z,232.00
2023-08-17T05:46:47.333Z,236.00
2023-08-17T05:47:47.325Z,236.00
2023-08-17T05:48:47.253Z,244.00
2023-08-17T05:49:47.237Z,244.00
2023-08-17T05:50:47.213Z,244.00
2023-08-17T05:51:47.192Z,248.00
2023-08-17T05:52:47.172Z,244.00
2023-08-17T05:53:47.149Z,248.00
2023-08-17T05:54:47.129Z,252.00
2023-08-17T05:55:47.109Z,240.00
2023-08-17T05:56:47.085Z,224.00
2023-08-17T05:57:47.063Z,224.00
2023-08-17T05:58:47.111Z,224.00
2023-08-17T05:59:47.029Z,220.00
2023-08-17T06:00:47.062Z,216.00
2023-08-17T06:01:46.987Z,216.00
2023-08-17T06:02:47.012Z,220.00
2023-08-17T06:03:46.984Z,216.00
2023-08-17T06:04:46.917Z,212.00
2023-08-17T06:05:46.898Z,216.00
2023-08-17T06:06:46.870Z,216.00
2023-08-17T06:07:46.856Z,212.00
2023-08-17T06:08:46.835Z,212.00
2023-08-17T06:09:46.812Z,216.00
2023-08-17T06:10:46.792Z,216.00
2023-08-17T06:11:46.776Z,224.00
2023-08-17T06:12:46.749Z,232.00
2023-08-17T06:13:46.727Z,236.00
2023-08-17T06:14:46.735Z,232.00
2023-08-17T06:15:46.682Z,232.00
2023-08-17T06:16:46.691Z,228.00
2023-08-17T06:17:46.690Z,228.00
2023-08-17T06:18:46.625Z,240.00
2023-08-17T06:19:46.621Z,244.00
2023-08-17T06:20:46.583Z,244.00
2023-08-17T06:21:46.565Z,244.00
2023-08-17T06:22:46.539Z,248.00
2023-08-17T06:23:46.526Z,256.00
2023-08-17T06:24:46.526Z,256.00
2023-08-17T06:25:46.486Z,256.00
2023-08-17T06:26:46.462Z,256.00
2023-08-17T06:27:46.437Z,256.00
2023-08-17T06:28:46.425Z,276.00
2023-08-17T06:29:46.393Z,304.00
2023-08-17T06:30:46.420Z,308.00
2023-08-17T06:31:46.359Z,316.00
2023-08-17T06:32:46.372Z,324.00
2023-08-17T06:33:46.317Z,344.00
2023-08-17T06:34:46.288Z,352.00
2023-08-17T06:35:46.302Z,344.00
2023-08-17T06:36:46.252Z,332.00
2023-08-17T06:37:46.232Z,324.00
2023-08-17T06:38:46.212Z,336.00
2023-08-17T06:39:46.183Z,320.00
2023-08-17T06:40:46.168Z,316.00
2023-08-17T06:41:46.142Z,332.00
2023-08-17T06:42:46.124Z,332.00
2023-08-17T06:43:46.104Z,308.00
2023-08-17T06:44:46.097Z,272.00
2023-08-17T06:45:46.058Z,268.00
2023-08-17T06:46:46.064Z,328.00
2023-08-17T06:47:46.080Z,344.00
2023-08-17T06:48:46.004Z,340.00
2023-08-17T06:49:45.979Z,348.00
2023-08-17T06:50:45.970Z,340.00
2023-08-17T06:51:45.957Z,308.00
2023-08-17T06:52:45.935Z,324.00
2023-08-17T06:53:45.899Z,352.00
2023-08-17T06:54:45.884Z,368.00
2023-08-17T06:55:45.861Z,364.00
2023-08-17T06:56:45.834Z,360.00
2023-08-17T06:57:45.811Z,320.00
2023-08-17T06:58:45.803Z,304.00
2023-08-17T06:59:45.772Z,308.00
2023-08-17T07:00:45.758Z,304.00
2023-08-17T07:01:45.737Z,316.00
2023-08-17T07:02:54.225Z,312.00
2023-08-17T07:03:45.696Z,284.00
2023-08-17T07:04:45.711Z,296.00
2023-08-17T07:05:45.653Z,324.00
2023-08-17T07:06:45.629Z,308.00
2023-08-17T07:07:45.636Z,276.00
2023-08-17T07:08:45.597Z,252.00
2023-08-17T07:09:45.565Z,268.00
2023-08-17T07:10:45.551Z,284.00
2023-08-17T07:11:45.526Z,280.00
2023-08-17T07:12:45.508Z,272.00
2023-08-17T07:13:45.480Z,256.00
2023-08-17T07:14:45.466Z,256.00
2023-08-17T07:15:45.442Z,256.00
2023-08-17T07:16:45.428Z,268.00
2023-08-17T07:17:45.415Z,252.00
2023-08-17T07:18:45.390Z,236.00
2023-08-17T07:20:13.668Z,232.00
2023-08-17T07:20:45.347Z,216.00
2023-08-17T07:21:45.314Z,208.00
2023-08-17T07:22:45.330Z,200.00
2023-08-17T07:23:45.294Z,196.00
2023-08-17T07:24:45.259Z,200.00
2023-08-17T07:25:45.271Z,208.00
2023-08-17T07:26:45.222Z,208.00
2023-08-17T07:27:45.196Z,216.00
2023-08-17T07:28:45.176Z,212.00
2023-08-17T07:29:45.157Z,212.00
2023-08-17T07:30:45.143Z,212.00
2023-08-17T07:31:45.156Z,216.00
2023-08-17T07:32:45.099Z,220.00
2023-08-17T07:33:45.073Z,228.00
2023-08-17T07:34:45.056Z,244.00
2023-08-17T07:35:45.023Z,244.00
2023-08-17T07:36:45.011Z,252.00
2023-08-17T07:37:53.030Z,252.00
2023-08-17T07:38:44.967Z,252.00
2023-08-17T07:39:44.966Z,252.00
2023-08-17T07:40:44.917Z,256.00
2023-08-17T07:41:44.901Z,284.00
2023-08-17T07:42:44.898Z,304.00
2023-08-17T07:43:44.858Z,308.00
2023-08-17T07:44:44.848Z,300.00
2023-08-17T07:45:44.838Z,304.00
2023-08-17T07:46:44.810Z,308.00
2023-08-17T07:47:44.792Z,320.00
2023-08-17T07:48:44.759Z,332.00
2023-08-17T07:49:46.312Z,320.00
2023-08-17T07:50:44.725Z,320.00
2023-08-17T07:51:44.699Z,308.00
2023-08-17T07:52:44.676Z,316.00
2023-08-17T07:53:44.657Z,324.00
2023-08-17T07:54:44.636Z,320.00
2023-08-17T07:55:44.646Z,312.00
2023-08-17T07:56:44.591Z,288.00
2023-08-17T07:57:44.576Z,256.00
2023-08-17T07:58:44.547Z,264.00
2023-08-17T07:59:44.539Z,264.00
2023-08-17T08:00:44.507Z,232.00
2023-08-17T08:01:44.535Z,220.00
2023-08-17T08:02:44.563Z,232.00
2023-08-17T08:03:44.454Z,248.00
2023-08-17T08:04:44.434Z,260.00
2023-08-17T08:05:44.473Z,272.00
2023-08-17T08:06:44.379Z,268.00
2023-08-17T08:07:44.358Z,272.00
2023-08-17T08:08:44.346Z,280.00
2023-08-17T08:09:44.322Z,284.00
2023-08-17T08:10:44.316Z,296.00
2023-08-17T08:11:44.305Z,300.00
2023-08-17T08:12:44.260Z,288.00
2023-08-17T08:13:44.238Z,272.00
2023-08-17T08:14:44.210Z,292.00
2023-08-17T08:15:44.229Z,292.00
2023-08-17T08:16:44.193Z,288.00
2023-08-17T08:17:44.194Z,296.00
2023-08-17T08:18:44.136Z,308.00
2023-08-17T08:19:44.133Z,300.00
2023-08-17T08:20:44.095Z,292.00
2023-08-17T08:21:44.083Z,316.00
2023-08-17T08:22:44.051Z,344.00
2023-08-17T08:23:44.032Z,376.00
2023-08-17T08:24:44.950Z,392.00
2023-08-17T08:25:43.991Z,400.00
2023-08-17T08:26:43.974Z,428.00
2023-08-17T08:27:43.983Z,436.00
2023-08-17T08:28:43.937Z,436.00
2023-08-17T08:29:43.904Z,428.00
2023-08-17T08:30:43.889Z,436.00
2023-08-17T08:31:43.984Z,440.00
2023-08-17T08:32:43.875Z,444.00
2023-08-17T08:33:43.827Z,428.00
2023-08-17T08:34:43.807Z,432.00
2023-08-17T08:35:43.781Z,452.00
2023-08-17T08:36:43.790Z,448.00
2023-08-17T08:37:43.743Z,444.00
2023-08-17T08:38:43.727Z,420.00
2023-08-17T08:39:43.706Z,408.00
2023-08-17T08:40:43.685Z,404.00
2023-08-17T08:41:43.664Z,400.00
2023-08-17T08:42:43.660Z,412.00
2023-08-17T08:43:45.016Z,404.00
2023-08-17T08:44:43.609Z,388.00
2023-08-17T08:45:43.607Z,388.00
2023-08-17T08:46:43.562Z,400.00
2023-08-17T08:47:43.599Z,408.00
2023-08-17T08:48:43.519Z,380.00
2023-08-17T08:49:44.674Z,380.00
2023-08-17T08:50:43.481Z,392.00
2023-08-17T08:51:43.464Z,416.00
2023-08-17T08:52:43.431Z,456.00
2023-08-17T08:53:43.421Z,452.00
2023-08-17T08:54:43.393Z,432.00
2023-08-17T08:55:45.978Z,448.00
2023-08-17T08:56:47.836Z,472.00
2023-08-17T08:57:43.334Z,484.00
2023-08-17T08:58:43.306Z,456.00
2023-08-17T08:59:43.319Z,436.00
2023-08-17T09:00:43.280Z,432.00
2023-08-17T09:01:43.360Z,432.00
2023-08-17T09:02:43.241Z,436.00
2023-08-17T09:03:43.222Z,444.00
2023-08-17T09:04:43.205Z,476.00
2023-08-17T09:05:43.186Z,476.00
2023-08-17T09:06:43.157Z,464.00
2023-08-17T09:07:43.184Z,464.00
2023-08-17T09:08:43.106Z,480.00
2023-08-17T09:09:43.091Z,500.00
2023-08-17T09:10:43.068Z,532.00
2023-08-17T09:11:45.380Z,524.00
2023-08-17T09:13:43.011Z,484.00
2023-08-17T09:14:42.994Z,476.00
2023-08-17T09:15:43.083Z,460.00
2023-08-17T09:16:42.999Z,440.00
2023-08-17T09:17:42.959Z,424.00
2023-08-17T09:18:42.903Z,412.00
2023-08-17T09:19:42.890Z,360.00
2023-08-17T09:21:42.847Z,324.00
2023-08-17T09:22:42.846Z,332.00
2023-08-17T09:23:42.808Z,328.00
2023-08-17T09:24:42.783Z,324.00
2023-08-17T09:25:42.766Z,316.00
2023-08-17T09:26:42.765Z,320.00
2023-08-17T09:27:42.781Z,320.00
2023-08-17T09:28:42.719Z,320.00
2023-08-17T09:29:42.724Z,328.00
2023-08-17T09:30:42.691Z,328.00
2023-08-17T09:31:42.668Z,328.00
2023-08-17T09:32:42.656Z,324.00
2023-08-17T09:33:45.431Z,320.00
2023-08-17T09:34:42.580Z,320.00
2023-08-17T09:35:42.565Z,316.00
2023-08-17T09:36:42.548Z,324.00
2023-08-17T09:37:42.521Z,336.00
2023-08-17T09:38:42.504Z,344.00
2023-08-17T09:39:42.485Z,344.00
2023-08-17T09:40:42.456Z,344.00
2023-08-17T09:41:43.737Z,344.00
2023-08-17T09:42:42.419Z,336.00
2023-08-17T09:43:42.462Z,336.00
2023-08-17T09:44:42.373Z,340.00
2023-08-17T09:45:42.389Z,344.00
2023-08-17T09:46:42.382Z,348.00
2023-08-17T09:47:42.379Z,356.00
2023-08-17T09:48:42.296Z,356.00
2023-08-17T09:49:42.275Z,360.00
2023-08-17T09:50:42.256Z,352.00
2023-08-17T09:51:43.459Z,344.00
2023-08-17T09:52:42.220Z,336.00
2023-08-17T09:53:42.196Z,336.00
2023-08-17T09:54:42.172Z,336.00
2023-08-17T09:55:42.153Z,336.00
2023-08-17T09:56:42.134Z,336.00
2023-08-17T09:57:42.147Z,344.00
2023-08-17T09:58:42.089Z,352.00
2023-08-17T09:59:42.081Z,360.00
2023-08-17T10:00:42.103Z,360.00
2023-08-17T10:01:42.032Z,360.00
2023-08-17T10:02:42.043Z,360.00
2023-08-17T10:03:42.009Z,368.00
2023-08-17T10:04:41.986Z,376.00
2023-08-17T10:05:41.953Z,384.00
2023-08-17T10:06:41.930Z,392.00
2023-08-17T10:07:41.908Z,392.00
2023-08-17T10:08:41.893Z,380.00
2023-08-17T10:09:41.873Z,372.00
2023-08-17T10:10:41.849Z,372.00
2023-08-17T10:11:41.862Z,364.00
2023-08-17T10:12:41.859Z,360.00
2023-08-17T10:13:41.788Z,364.00
2023-08-17T10:14:41.768Z,380.00
2023-08-17T10:15:41.754Z,388.00
2023-08-17T10:16:41.755Z,388.00
2023-08-17T10:17:41.749Z,376.00
2023-08-17T10:18:41.678Z,360.00
2023-08-17T10:19:41.697Z,356.00
2023-08-17T10:20:41.643Z,356.00
2023-08-17T10:21:41.626Z,360.00
2023-08-17T10:22:41.603Z,364.00
2023-08-17T10:23:43.102Z,364.00
2023-08-17T10:24:46.714Z,364.00
2023-08-17T10:25:41.546Z,368.00
2023-08-17T10:26:41.559Z,376.00
2023-08-17T10:27:41.505Z,380.00
2023-08-17T10:28:41.483Z,384.00
2023-08-17T10:29:41.474Z,392.00
2023-08-17T10:30:41.459Z,400.00
2023-08-17T10:31:41.449Z,416.00
2023-08-17T10:32:41.455Z,428.00
2023-08-17T10:33:41.391Z,436.00
2023-08-17T10:34:41.363Z,436.00
2023-08-17T10:35:41.370Z,448.00
2023-08-17T10:36:41.326Z,452.00
2023-08-17T10:37:41.325Z,468.00
2023-08-17T10:38:41.279Z,476.00
2023-08-17T10:39:41.266Z,476.00
2023-08-17T10:40:41.260Z,460.00
2023-08-17T10:41:41.215Z,436.00
2023-08-17T10:42:41.202Z,420.00
2023-08-17T10:43:41.187Z,420.00
2023-08-17T10:44:41.176Z,428.00
2023-08-17T10:45:41.264Z,432.00
2023-08-17T10:46:41.177Z,444.00
2023-08-17T10:47:41.136Z,448.00
2023-08-17T10:48:41.081Z,444.00
2023-08-17T10:49:41.066Z,436.00
2023-08-17T10:50:43.979Z,432.00
2023-08-17T10:51:45.524Z,420.00
2023-08-17T10:52:40.996Z,416.00
2023-08-17T10:53:40.987Z,420.00
2023-08-17T10:54:40.974Z,420.00
2023-08-17T10:55:40.949Z,412.00
2023-08-17T10:56:40.921Z,404.00
2023-08-17T10:57:40.904Z,408.00
2023-08-17T10:58:40.881Z,408.00
2023-08-17T10:59:40.863Z,424.00
2023-08-17T11:00:40.839Z,440.00
2023-08-17T11:01:40.892Z,448.00
2023-08-17T11:02:41.270Z,452.00
2023-08-17T11:03:40.785Z,460.00
2023-08-17T11:04:40.816Z,468.00
2023-08-17T11:05:40.743Z,472.00
2023-08-17T11:06:40.730Z,484.00
2023-08-17T11:07:40.807Z,500.00
2023-08-17T11:08:43.602Z,504.00
2023-08-17T11:09:45.117Z,512.00
2023-08-17T11:10:40.658Z,504.00
2023-08-17T11:11:40.620Z,476.00
2023-08-17T11:12:40.599Z,464.00
2023-08-17T11:13:40.586Z,456.00
2023-08-17T11:14:40.560Z,436.00
2023-08-17T11:15:40.640Z,416.00
2023-08-17T11:16:40.557Z,396.00
2023-08-17T11:17:40.629Z,376.00
2023-08-17T11:18:40.479Z,372.00
2023-08-17T11:19:40.470Z,364.00
2023-08-17T11:20:40.438Z,344.00
2023-08-17T11:21:40.426Z,332.00
2023-08-17T11:22:40.399Z,332.00
2023-08-17T11:23:40.400Z,336.00
2023-08-17T11:24:40.385Z,328.00
2023-08-17T11:25:40.345Z,324.00
2023-08-17T11:26:40.332Z,312.00
2023-08-17T11:27:40.302Z,304.00
2023-08-17T11:29:44.627Z,276.00
2023-08-17T11:30:40.572Z,268.00
2023-08-17T11:31:40.240Z,268.00
2023-08-17T11:32:40.209Z,272.00
2023-08-17T11:33:40.185Z,264.00
2023-08-17T11:34:40.160Z,256.00
2023-08-17T11:35:40.132Z,256.00
2023-08-17T11:36:40.120Z,256.00
2023-08-17T11:37:40.130Z,252.00
2023-08-17T11:38:40.107Z,256.00
2023-08-17T11:39:40.079Z,276.00
2023-08-17T11:40:40.038Z,284.00
2023-08-17T11:41:40.027Z,296.00
2023-08-17T11:42:39.996Z,304.00
2023-08-17T11:43:39.977Z,304.00
2023-08-17T11:44:39.952Z,300.00
2023-08-17T11:45:40.020Z,312.00
2023-08-17T11:46:39.926Z,324.00
2023-08-17T11:47:39.904Z,340.00
2023-08-17T11:48:39.874Z,344.00
2023-08-17T11:49:40.312Z,344.00
2023-08-17T11:50:40.317Z,356.00
2023-08-17T11:51:43.149Z,356.00
2023-08-17T11:52:39.803Z,352.00
2023-08-17T11:53:39.785Z,344.00
2023-08-17T11:54:39.755Z,324.00
2023-08-17T11:55:39.759Z,316.00
2023-08-17T11:56:39.713Z,320.00
2023-08-17T11:57:39.700Z,312.00
2023-08-17T11:58:39.672Z,304.00
2023-08-17T11:59:39.658Z,300.00
2023-08-17T12:00:39.636Z,308.00
2023-08-17T12:01:39.672Z,316.00
2023-08-17T12:02:39.621Z,336.00
2023-08-17T12:03:39.704Z,352.00
2023-08-17T12:04:39.558Z,372.00
2023-08-17T12:05:39.535Z,376.00
2023-08-17T12:06:39.513Z,372.00
2023-08-17T12:07:39.544Z,372.00
2023-08-17T12:08:39.464Z,368.00
2023-08-17T12:09:39.451Z,364.00
2023-08-17T12:10:39.429Z,360.00
2023-08-17T12:11:39.456Z,368.00
2023-08-17T12:12:39.392Z,380.00
2023-08-17T12:13:39.369Z,384.00
2023-08-17T12:14:39.354Z,380.00
2023-08-17T12:15:39.384Z,396.00
2023-08-17T12:16:39.319Z,420.00
2023-08-17T12:17:39.310Z,404.00
2023-08-17T12:18:39.273Z,376.00
2023-08-17T12:19:39.260Z,360.00
2023-08-17T12:20:39.235Z,356.00
2023-08-17T12:21:39.227Z,344.00
2023-08-17T12:22:39.191Z,332.00
2023-08-17T12:23:39.178Z,336.00
2023-08-17T12:24:39.161Z,348.00
2023-08-17T12:25:39.143Z,360.00
2023-08-17T12:26:39.117Z,360.00
2023-08-17T12:27:39.113Z,340.00
2023-08-17T12:28:39.072Z,328.00
2023-08-17T12:29:39.057Z,328.00
2023-08-17T12:30:39.034Z,332.00
2023-08-17T12:31:39.028Z,352.00
2023-08-17T12:32:39.056Z,388.00
2023-08-17T12:33:39.001Z,424.00
2023-08-17T12:34:38.953Z,412.00
2023-08-17T12:35:38.970Z,396.00
2023-08-17T12:36:38.936Z,396.00
2023-08-17T12:37:38.896Z,396.00
2023-08-17T12:38:38.878Z,408.00
2023-08-17T12:39:38.853Z,444.00
2023-08-17T12:40:38.831Z,496.00
2023-08-17T12:41:38.833Z,524.00
2023-08-17T12:42:38.798Z,504.00
2023-08-17T12:43:38.813Z,512.00
2023-08-17T12:44:38.753Z,524.00
2023-08-17T12:45:38.741Z,564.00
2023-08-17T12:46:38.753Z,544.00
2023-08-17T12:47:38.737Z,492.00
2023-08-17T12:48:38.667Z,464.00
2023-08-17T12:49:39.540Z,428.00
2023-08-17T12:50:43.372Z,380.00